createdAt,value
2023-01-13T00:00:53.201Z,7.20
2023-01-13T00:03:20.752Z,5.40
2023-01-13T00:05:47.835Z,3.75
2023-01-13T00:08:14.759Z,4.28
2023-01-13T00:10:41.903Z,6.78
2023-01-13T00:13:09.424Z,6.32
2023-01-13T00:15:36.495Z,8.80
2023-01-13T00:18:03.559Z,9.27
2023-01-13T00:20:30.672Z,4.53
2023-01-13T00:22:59.006Z,5.55
2023-01-13T00:25:26.354Z,7.13
2023-01-13T00:27:53.443Z,5.30
2023-01-13T00:30:20.550Z,5.35
2023-01-13T00:32:47.669Z,4.65
2023-01-13T00:35:14.855Z,4.43
2023-01-13T00:37:41.984Z,5.30
2023-01-13T00:40:09.770Z,5.38
2023-01-13T00:42:55.191Z,9.73
2023-01-13T00:45:22.288Z,7.88
2023-01-13T00:47:49.230Z,6.22
2023-01-13T00:50:16.611Z,6.53
2023-01-13T00:52:43.579Z,3.33
2023-01-13T00:55:10.751Z,3.17
2023-01-13T00:57:37.801Z,3.83
2023-01-13T01:00:05.132Z,6.82
2023-01-13T01:02:32.126Z,6.20
2023-01-13T01:05:00.173Z,3.50
2023-01-13T01:07:27.146Z,3.75
2023-01-13T01:09:54.237Z,5.35
2023-01-13T01:12:21.202Z,7.05
2023-01-13T01:14:48.950Z,5.00
2023-01-13T01:17:15.917Z,5.18
2023-01-13T01:19:43.000Z,5.35
2023-01-13T01:22:10.103Z,4.22
2023-01-13T01:24:37.248Z,4.00
2023-01-13T01:27:04.347Z,4.55
2023-01-13T01:29:31.289Z,4.72
2023-01-13T01:31:59.266Z,5.28
2023-01-13T01:34:26.163Z,5.30
2023-01-13T01:36:53.303Z,8.30
2023-01-13T01:39:20.202Z,3.83
2023-01-13T01:42:07.562Z,4.43
2023-01-13T01:44:54.771Z,5.55
2023-01-13T01:47:23.548Z,5.70
2023-01-13T01:49:51.311Z,4.25
2023-01-13T01:52:26.395Z,4.25
2023-01-13T01:55:08.938Z,4.18
2023-01-13T01:57:39.075Z,3.85
2023-01-13T02:00:06.795Z,3.90
2023-01-13T02:02:40.131Z,4.40
2023-01-13T02:05:07.453Z,5.72
2023-01-13T02:07:36.435Z,3.20
2023-01-13T02:10:07.277Z,3.25
2023-01-13T02:12:35.290Z,5.03
2023-01-13T02:15:04.571Z,6.25
2023-01-13T02:17:56.971Z,4.40
2023-01-13T02:20:27.028Z,4.13
2023-01-13T02:23:49.757Z,3.67
2023-01-13T02:26:45.692Z,5.43
2023-01-13T02:29:53.431Z,7.13
2023-01-13T02:32:25.849Z,3.28
2023-01-13T02:35:09.580Z,8.70
2023-01-13T02:37:42.388Z,5.00
2023-01-13T02:40:16.240Z,4.22
2023-01-13T02:43:23.001Z,4.28
2023-01-13T02:45:55.216Z,3.20
2023-01-13T02:48:24.694Z,8.48
2023-01-13T02:51:01.121Z,3.75
2023-01-13T02:53:40.190Z,6.05
2023-01-13T02:56:10.621Z,4.38
2023-01-13T02:58:42.103Z,6.60
2023-01-13T03:01:09.661Z,8.18
2023-01-13T03:03:36.870Z,6.28
2023-01-13T03:06:18.844Z,4.50
2023-01-13T03:08:53.667Z,4.68
2023-01-13T03:11:21.447Z,4.25
2023-01-13T03:14:06.171Z,3.20
2023-01-13T03:16:48.683Z,4.57
2023-01-13T03:19:24.918Z,6.78
2023-01-13T03:22:13.586Z,3.95
2023-01-13T03:24:45.311Z,6.10
2023-01-13T03:27:20.691Z,5.13
2023-01-13T03:30:03.900Z,5.60
2023-01-13T03:32:44.584Z,3.53
2023-01-13T03:35:26.019Z,8.57
2023-01-13T03:38:03.801Z,4.90
2023-01-13T03:40:35.379Z,6.70
2023-01-13T03:43:32.786Z,6.55
2023-01-13T03:46:11.139Z,7.35
2023-01-13T03:48:42.743Z,6.72
2023-01-13T03:51:15.572Z,6.55
2023-01-13T03:53:55.989Z,7.97
2023-01-13T03:56:30.165Z,7.20
2023-01-13T03:58:58.689Z,9.25
2023-01-13T04:01:33.193Z,6.85
2023-01-13T04:04:08.523Z,4.90
2023-01-13T04:06:47.572Z,3.60
2023-01-13T04:09:27.633Z,5.47
2023-01-13T04:12:01.724Z,6.63
2023-01-13T04:14:29.751Z,5.60
2023-01-13T04:16:57.349Z,4.22
2023-01-13T04:19:24.536Z,4.45
2023-01-13T04:21:51.567Z,5.90
2023-01-13T04:24:18.698Z,7.55
2023-01-13T04:26:45.683Z,5.63
2023-01-13T04:29:15.397Z,4.22
2023-01-13T04:31:43.160Z,5.80
2023-01-13T04:34:13.118Z,6.70
2023-01-13T04:36:40.396Z,7.00
2023-01-13T04:39:07.394Z,5.75
2023-01-13T04:41:54.468Z,7.40
2023-01-13T04:44:21.531Z,6.72
2023-01-13T04:46:48.641Z,7.22
2023-01-13T04:49:15.812Z,4.88
2023-01-13T04:51:42.839Z,7.43
2023-01-13T04:54:11.580Z,6.38
2023-01-13T04:56:39.003Z,6.60
2023-01-13T04:59:06.087Z,6.25
2023-01-13T05:01:33.321Z,6.35
2023-01-13T05:04:00.287Z,6.38
2023-01-13T05:06:27.475Z,8.15
2023-01-13T05:08:54.610Z,7.75
2023-01-13T05:11:39.964Z,9.50
2023-01-13T05:14:25.658Z,7.88
2023-01-13T05:17:00.645Z,8.63
2023-01-13T05:19:35.519Z,7.45
2023-01-13T05:22:21.474Z,8.20
2023-01-13T05:25:07.279Z,9.75
2023-01-13T05:27:34.659Z,9.38
2023-01-13T05:30:02.131Z,7.43
2023-01-13T05:32:29.242Z,11.52
2023-01-13T05:34:56.515Z,10.52
2023-01-13T05:37:24.543Z,7.68
2023-01-13T05:40:10.388Z,12.35
2023-01-13T05:42:56.047Z,9.77
2023-01-13T05:45:23.561Z,12.63
2023-01-13T05:47:50.873Z,10.57
2023-01-13T05:50:18.259Z,7.90
2023-01-13T05:52:45.384Z,8.90
2023-01-13T05:55:12.779Z,8.50
2023-01-13T05:57:40.033Z,9.80
2023-01-13T06:00:07.887Z,9.65
2023-01-13T06:02:40.971Z,12.15
2023-01-13T06:05:08.819Z,7.97
2023-01-13T06:07:35.870Z,7.03
2023-01-13T06:10:02.997Z,8.00
2023-01-13T06:12:30.029Z,9.00
2023-01-13T06:14:56.981Z,10.00
2023-01-13T06:17:24.070Z,12.45
2023-01-13T06:19:53.597Z,13.25
2023-01-13T06:22:27.170Z,11.88
2023-01-13T06:27:23.262Z,7.53
2023-01-13T06:29:50.342Z,9.23
2023-01-13T06:32:28.722Z,13.60
2023-01-13T06:35:00.839Z,10.35
2023-01-13T06:37:30.697Z,15.43
2023-01-13T06:40:00.567Z,11.98
2023-01-13T06:42:48.284Z,9.55
2023-01-13T06:45:15.499Z,13.50
2023-01-13T06:47:43.569Z,14.65
2023-01-13T06:50:11.570Z,11.52
2023-01-13T06:52:38.660Z,12.32
2023-01-13T06:55:06.132Z,9.13
2023-01-13T06:57:33.247Z,9.48
2023-01-13T07:00:01.341Z,12.90
2023-01-13T07:02:28.703Z,10.13
2023-01-13T07:04:55.881Z,12.90
2023-01-13T07:07:23.068Z,15.05
2023-01-13T07:09:50.074Z,11.65
2023-01-13T07:12:17.155Z,14.45
2023-01-13T07:15:02.786Z,11.98
2023-01-13T07:17:29.868Z,11.75
2023-01-13T07:19:58.160Z,10.82
2023-01-13T07:22:25.309Z,10.20
2023-01-13T07:24:52.349Z,8.15
2023-01-13T07:27:19.493Z,11.63
2023-01-13T07:29:46.524Z,16.58
2023-01-13T07:32:13.675Z,12.15
2023-01-13T07:34:40.723Z,14.02
2023-01-13T07:37:07.903Z,21.70
2023-01-13T07:39:34.948Z,10.88
2023-01-13T07:42:20.534Z,17.02
2023-01-13T07:44:48.850Z,14.40
2023-01-13T07:47:16.351Z,13.73
2023-01-13T07:49:43.552Z,12.93
2023-01-13T07:52:10.749Z,14.70
2023-01-13T07:54:41.020Z,17.08
2023-01-13T07:57:09.154Z,12.40
2023-01-13T07:59:36.408Z,14.23
2023-01-13T08:02:03.733Z,12.15
2023-01-13T08:04:31.028Z,19.83
2023-01-13T08:06:58.215Z,19.08
2023-01-13T08:09:25.488Z,25.38
2023-01-13T08:12:15.097Z,15.88
2023-01-13T08:14:42.632Z,16.38
2023-01-13T08:17:10.176Z,17.15
2023-01-13T08:19:37.297Z,18.00
2023-01-13T08:22:04.354Z,21.23
2023-01-13T08:24:31.643Z,15.45
2023-01-13T08:26:58.726Z,16.60
2023-01-13T08:29:28.724Z,16.55
2023-01-13T08:33:03.293Z,17.83
2023-01-13T08:35:30.417Z,16.60
2023-01-13T08:37:57.433Z,15.25
2023-01-13T08:40:24.725Z,14.10
2023-01-13T08:42:53.077Z,13.50
2023-01-13T08:45:20.201Z,20.17
2023-01-13T08:47:47.114Z,19.40
2023-01-13T08:50:15.067Z,11.65
2023-01-13T08:52:42.271Z,21.77
2023-01-13T08:55:10.168Z,19.60
2023-01-13T08:57:37.694Z,26.58
2023-01-13T09:00:07.381Z,33.70
2023-01-13T09:02:34.823Z,36.63
2023-01-13T09:05:04.070Z,17.42
2023-01-13T09:07:31.586Z,21.60
2023-01-13T09:09:58.876Z,16.55
2023-01-13T09:12:44.693Z,17.00
2023-01-13T09:15:12.977Z,22.50
2023-01-13T09:17:40.219Z,26.48
2023-01-13T09:20:07.608Z,18.92
2023-01-13T09:22:36.502Z,21.00
2023-01-13T09:25:04.614Z,27.67
2023-01-13T09:27:31.623Z,25.77
2023-01-13T09:29:58.656Z,25.23
2023-01-13T09:32:25.747Z,22.73
2023-01-13T09:35:02.113Z,26.75
2023-01-13T09:37:36.049Z,22.10
2023-01-13T09:40:17.807Z,17.73
2023-01-13T09:43:19.534Z,21.98
2023-01-13T09:46:05.451Z,18.23
2023-01-13T09:48:52.334Z,25.48
2023-01-13T09:51:28.386Z,17.67
2023-01-13T09:54:03.159Z,15.77
2023-01-13T09:56:30.448Z,11.98
2023-01-13T09:58:58.169Z,12.15
2023-01-13T10:01:39.858Z,12.98
2023-01-13T10:04:12.353Z,19.65
2023-01-13T10:06:42.852Z,26.02
2023-01-13T10:09:44.215Z,25.08
2023-01-13T10:12:37.749Z,26.75
2023-01-13T10:15:05.326Z,16.88
2023-01-13T10:17:50.915Z,20.38
2023-01-13T10:20:36.459Z,20.40
2023-01-13T10:23:23.610Z,20.88
2023-01-13T10:26:06.729Z,14.05
2023-01-13T10:28:33.812Z,13.82
2023-01-13T10:31:00.918Z,11.73
2023-01-13T10:33:29.606Z,11.27
2023-01-13T10:36:03.579Z,11.30
2023-01-13T10:38:48.612Z,11.13
2023-01-13T10:41:15.667Z,12.55
2023-01-13T10:44:04.594Z,8.10
2023-01-13T10:46:49.976Z,11.85
2023-01-13T10:49:36.576Z,19.27
2023-01-13T10:52:23.902Z,14.18
2023-01-13T10:54:54.675Z,12.52
2023-01-13T10:57:27.272Z,8.93
2023-01-13T10:59:56.504Z,7.97
2023-01-13T11:02:30.245Z,6.88
2023-01-13T11:05:03.415Z,15.52
2023-01-13T11:07:34.974Z,14.77
2023-01-13T11:10:44.661Z,9.57
2023-01-13T11:13:17.487Z,11.48
2023-01-13T11:15:58.264Z,10.30
2023-01-13T11:19:12.489Z,10.30
2023-01-13T11:21:51.820Z,10.30
2023-01-13T11:24:22.123Z,12.05
2023-01-13T11:26:59.122Z,9.10
2023-01-13T11:29:45.453Z,11.98
2023-01-13T11:32:20.410Z,6.68
2023-01-13T11:34:55.367Z,8.85
2023-01-13T11:37:33.120Z,10.50
2023-01-13T11:40:15.562Z,10.13
2023-01-13T11:43:00.245Z,9.27
2023-01-13T11:45:44.912Z,11.80
2023-01-13T11:48:16.496Z,13.23
2023-01-13T11:50:56.030Z,11.18
2023-01-13T11:53:44.758Z,6.57
2023-01-13T11:56:44.311Z,7.75
2023-01-13T11:59:11.435Z,10.65
2023-01-13T12:02:09.261Z,10.60
2023-01-13T12:04:44.266Z,12.05
2023-01-13T12:07:22.183Z,8.02
2023-01-13T12:10:03.764Z,12.73
2023-01-13T12:12:58.864Z,8.75
2023-01-13T12:15:45.679Z,10.90
2023-01-13T12:18:54.858Z,8.05
2023-01-13T12:21:26.003Z,8.65
2023-01-13T12:24:13.563Z,7.03
2023-01-13T12:26:51.357Z,6.68
2023-01-13T12:29:29.787Z,6.95
2023-01-13T12:31:59.739Z,7.88
2023-01-13T12:34:44.881Z,5.80
2023-01-13T12:37:39.785Z,5.47
2023-01-13T12:40:22.974Z,5.35
2023-01-13T12:43:22.967Z,7.40
2023-01-13T12:45:50.210Z,5.40
2023-01-13T12:48:44.981Z,5.47
2023-01-13T12:51:29.176Z,8.00
2023-01-13T12:53:56.741Z,7.93
2023-01-13T12:56:44.012Z,6.60
2023-01-13T12:59:16.919Z,5.63
2023-01-13T13:01:46.331Z,7.72
2023-01-13T13:04:17.571Z,6.72
2023-01-13T13:06:56.188Z,4.85
2023-01-13T13:09:25.976Z,6.00
2023-01-13T13:11:59.041Z,6.28
2023-01-13T13:14:38.163Z,5.03
2023-01-13T13:17:28.507Z,8.45
2023-01-13T13:20:00.359Z,4.15
2023-01-13T13:22:27.409Z,6.70
2023-01-13T13:24:57.780Z,5.05
2023-01-13T13:27:44.329Z,6.78
2023-01-13T13:30:29.161Z,5.40
2023-01-13T13:33:23.769Z,4.05
2023-01-13T13:36:16.904Z,8.27
2023-01-13T13:39:08.572Z,7.60
2023-01-13T13:41:55.568Z,7.13
2023-01-13T13:44:59.325Z,7.18
2023-01-13T13:47:34.897Z,5.22
2023-01-13T13:50:09.170Z,4.85
2023-01-13T13:52:54.612Z,8.13
2023-01-13T13:55:28.069Z,6.00
2023-01-13T13:57:57.816Z,5.78
2023-01-13T14:00:29.693Z,4.32
2023-01-13T14:03:01.446Z,6.57
2023-01-13T14:05:31.302Z,5.35
2023-01-13T14:08:10.399Z,4.13
2023-01-13T14:10:40.430Z,6.18
2023-01-13T14:13:27.355Z,6.25
2023-01-13T14:15:58.801Z,4.20
2023-01-13T14:18:28.085Z,5.15
2023-01-13T14:21:15.459Z,9.88
2023-01-13T14:24:01.689Z,5.68
2023-01-13T14:26:32.256Z,7.00
2023-01-13T14:29:02.358Z,4.80
2023-01-13T14:31:30.731Z,6.53
2023-01-13T14:34:01.001Z,7.85
2023-01-13T14:36:34.143Z,7.63
2023-01-13T14:39:04.411Z,5.38
2023-01-13T14:41:34.380Z,7.80
2023-01-13T14:44:04.665Z,7.53
2023-01-13T14:46:39.059Z,7.90
2023-01-13T14:49:19.477Z,7.90
2023-01-13T14:51:46.828Z,6.38
2023-01-13T14:54:43.438Z,5.97
2023-01-13T14:57:24.750Z,7.03
2023-01-13T15:00:16.167Z,4.80
2023-01-13T15:02:58.522Z,5.93
2023-01-13T15:05:25.621Z,5.00
2023-01-13T15:07:52.608Z,7.43
2023-01-13T15:10:26.877Z,5.90
2023-01-13T15:12:56.338Z,7.68
2023-01-13T15:15:30.407Z,5.78
2023-01-13T15:17:57.672Z,10.88
2023-01-13T15:20:25.443Z,6.72
2023-01-13T15:22:52.876Z,4.90
2023-01-13T15:25:20.398Z,7.38
2023-01-13T15:27:51.117Z,8.45
2023-01-13T15:30:25.227Z,5.30
2023-01-13T15:32:55.321Z,6.63
2023-01-13T15:35:24.819Z,5.93
2023-01-13T15:37:52.473Z,7.40
2023-01-13T15:40:23.676Z,7.50
2023-01-13T15:43:09.407Z,6.22
2023-01-13T15:45:55.957Z,7.70
2023-01-13T15:48:25.214Z,5.30
2023-01-13T15:50:52.711Z,6.75
2023-01-13T15:53:20.743Z,4.80
2023-01-13T15:55:52.489Z,6.30
2023-01-13T15:58:24.334Z,10.57
2023-01-13T16:00:51.655Z,7.03
2023-01-13T16:03:18.732Z,7.30
2023-01-13T16:05:46.072Z,3.97
2023-01-13T16:08:21.412Z,3.90
2023-01-13T16:10:49.601Z,6.70
2023-01-13T16:13:18.042Z,5.80
2023-01-13T16:15:48.732Z,9.63
2023-01-13T16:18:21.391Z,4.03
2023-01-13T16:20:52.893Z,4.45
2023-01-13T16:23:20.605Z,4.93
2023-01-13T16:25:47.957Z,5.82
2023-01-13T16:28:24.574Z,6.13
2023-01-13T16:30:52.101Z,10.20
2023-01-13T16:33:19.147Z,6.35
2023-01-13T16:36:10.223Z,5.28
2023-01-13T16:38:33.425Z,4.65
2023-01-13T16:41:00.485Z,3.53
2023-01-13T16:43:28.041Z,7.90
2023-01-13T16:45:55.123Z,5.25
2023-01-13T16:48:22.892Z,8.20
2023-01-13T16:50:50.113Z,5.28
2023-01-13T16:53:17.286Z,4.82
2023-01-13T16:55:45.103Z,6.97
2023-01-13T16:58:17.680Z,3.47
2023-01-13T17:00:47.115Z,6.22
2023-01-13T17:03:15.431Z,6.80
2023-01-13T17:05:44.284Z,5.28
2023-01-13T17:08:17.938Z,5.75
2023-01-13T17:10:46.550Z,5.63
2023-01-13T17:13:17.449Z,5.55
2023-01-13T17:15:46.268Z,15.75
2023-01-13T17:18:13.689Z,14.15
2023-01-13T17:20:41.210Z,15.60
2023-01-13T17:23:08.545Z,15.07
2023-01-13T17:25:35.727Z,17.23
2023-01-13T17:28:03.132Z,14.82
2023-01-13T17:30:30.277Z,14.52
2023-01-13T17:32:57.302Z,14.38
2023-01-13T17:35:26.036Z,12.68
2023-01-13T17:37:54.016Z,16.15
2023-01-13T17:40:21.503Z,14.73
2023-01-13T17:42:48.565Z,13.40
2023-01-13T17:45:16.497Z,21.42
2023-01-13T17:47:43.603Z,16.95
2023-01-13T17:50:10.924Z,17.67
2023-01-13T17:52:37.973Z,18.85
2023-01-13T17:55:05.397Z,17.63
2023-01-13T17:57:32.362Z,18.08
2023-01-13T17:59:59.741Z,14.60
2023-01-13T18:02:26.955Z,18.23
2023-01-13T18:04:54.233Z,12.23
2023-01-13T18:07:21.396Z,14.07
2023-01-13T18:09:48.496Z,17.23
2023-01-13T18:12:15.515Z,15.18
2023-01-13T18:14:42.903Z,14.10
2023-01-13T18:17:10.237Z,17.95
2023-01-13T18:19:56.313Z,22.65
2023-01-13T18:22:41.773Z,19.90
2023-01-13T18:25:33.112Z,25.17
2023-01-13T18:28:02.783Z,19.08
2023-01-13T18:30:30.112Z,21.98
2023-01-13T18:32:57.946Z,20.88
2023-01-13T18:35:25.138Z,21.85
2023-01-13T18:37:52.368Z,22.58
2023-01-13T18:40:19.659Z,21.73
2023-01-13T18:42:54.235Z,20.40
2023-01-13T18:45:29.825Z,19.23
2023-01-13T18:48:00.089Z,19.52
2023-01-13T18:50:28.584Z,20.13
2023-01-13T18:52:55.808Z,16.90
2023-01-13T18:55:23.564Z,13.15
2023-01-13T18:57:51.533Z,18.10
2023-01-13T19:00:20.686Z,14.35
2023-01-13T19:02:50.889Z,19.75
2023-01-13T19:05:18.459Z,14.90
2023-01-13T19:07:50.807Z,14.88
2023-01-13T19:10:18.441Z,15.63
2023-01-13T19:12:45.739Z,12.73
2023-01-13T19:15:13.152Z,20.10
2023-01-13T19:17:40.447Z,16.08
2023-01-13T19:20:07.996Z,20.13
2023-01-13T19:22:36.045Z,14.93
2023-01-13T19:25:04.413Z,15.02
2023-01-13T19:27:31.967Z,16.92
2023-01-13T19:30:01.131Z,13.82
2023-01-13T19:32:31.065Z,17.35
2023-01-13T19:34:59.894Z,16.20
2023-01-13T19:37:31.696Z,18.25
2023-01-13T19:40:00.257Z,19.25
2023-01-13T19:42:46.706Z,20.33
2023-01-13T19:45:28.603Z,20.92
2023-01-13T19:47:58.625Z,21.52
2023-01-13T19:50:27.382Z,22.92
2023-01-13T19:52:55.705Z,19.35
2023-01-13T19:55:24.688Z,23.60
2023-01-13T19:57:52.851Z,19.27
2023-01-13T20:00:22.984Z,18.77
2023-01-13T20:02:53.502Z,21.65
2023-01-13T20:05:25.532Z,18.60
2023-01-13T20:07:54.865Z,17.73
2023-01-13T20:10:24.679Z,15.77
2023-01-13T20:12:52.536Z,16.33
2023-01-13T20:15:20.974Z,15.70
2023-01-13T20:17:49.503Z,15.40
2023-01-13T20:20:18.824Z,13.35
2023-01-13T20:22:48.735Z,15.13
2023-01-13T20:25:17.771Z,17.65
2023-01-13T20:27:47.906Z,18.45
2023-01-13T20:30:15.719Z,16.25
2023-01-13T20:32:44.316Z,19.55
2023-01-13T20:35:15.518Z,24.00
2023-01-13T20:37:44.124Z,20.50
2023-01-13T20:40:16.095Z,26.52
2023-01-13T20:42:46.548Z,30.13
2023-01-13T20:45:18.763Z,26.00
2023-01-13T20:47:47.090Z,27.23
2023-01-13T20:50:15.880Z,25.55
2023-01-13T20:52:44.240Z,26.15
2023-01-13T20:55:13.151Z,25.83
2023-01-13T20:57:42.108Z,28.52
2023-01-13T21:00:11.464Z,26.55
2023-01-13T21:02:41.209Z,24.25
2023-01-13T21:05:10.557Z,21.25
2023-01-13T21:07:38.177Z,21.20
2023-01-13T21:10:06.117Z,18.58
2023-01-13T21:12:52.661Z,18.90
2023-01-13T21:15:23.120Z,30.92
2023-01-13T21:18:11.157Z,24.50
2023-01-13T21:20:39.749Z,24.23
2023-01-13T21:23:08.106Z,21.08
2023-01-13T21:25:40.609Z,22.70
2023-01-13T21:28:12.431Z,21.33
2023-01-13T21:30:40.681Z,22.10
2023-01-13T21:33:15.254Z,20.75
2023-01-13T21:35:43.531Z,21.13
2023-01-13T21:38:12.612Z,21.83
2023-01-13T21:40:40.674Z,19.33
2023-01-13T21:43:31.439Z,20.55
2023-01-13T21:46:17.542Z,19.15
2023-01-13T21:48:45.120Z,21.40
2023-01-13T21:51:12.533Z,21.38
2023-01-13T21:53:39.805Z,19.23
2023-01-13T21:56:08.097Z,20.02
2023-01-13T21:58:35.269Z,29.30
2023-01-13T22:01:03.259Z,26.30
2023-01-13T22:03:30.690Z,22.85
2023-01-13T22:05:58.115Z,21.67
2023-01-13T22:08:25.057Z,23.00
2023-01-13T22:10:58.412Z,19.50
2023-01-13T22:13:46.233Z,23.60
2023-01-13T22:16:15.688Z,19.88
2023-01-13T22:18:43.521Z,25.13
2023-01-13T22:21:11.276Z,21.83
2023-01-13T22:23:38.548Z,24.73
2023-01-13T22:26:07.377Z,25.15
2023-01-13T22:28:40.720Z,25.08
2023-01-13T22:33:35.705Z,22.75
2023-01-13T22:36:03.142Z,22.35
2023-01-13T22:38:30.406Z,21.95
2023-01-13T22:40:58.583Z,18.85
2023-01-13T22:43:27.233Z,18.40
2023-01-13T22:46:08.980Z,23.42
2023-01-13T22:48:36.932Z,21.85
2023-01-13T22:51:08.628Z,18.73
2023-01-13T22:53:35.869Z,20.48
2023-01-13T22:56:04.051Z,20.15
2023-01-13T22:58:31.517Z,14.35
2023-01-13T23:01:10.108Z,17.08
2023-01-13T23:03:38.963Z,17.33
2023-01-13T23:06:06.331Z,15.30
2023-01-13T23:08:34.510Z,18.38
2023-01-13T23:11:07.442Z,14.65
2023-01-13T23:13:36.162Z,15.68
2023-01-13T23:16:06.790Z,14.02
2023-01-13T23:18:34.337Z,14.55
2023-01-13T23:21:06.984Z,15.55
2023-01-13T23:23:35.011Z,17.73
2023-01-13T23:26:03.146Z,13.55
2023-01-13T23:28:31.324Z,11.85
2023-01-13T23:30:58.624Z,12.57
2023-01-13T23:33:26.226Z,11.95
2023-01-13T23:36:02.047Z,12.68
2023-01-13T23:38:30.092Z,11.65
2023-01-13T23:40:57.619Z,12.93
2023-01-13T23:43:26.660Z,11.85
2023-01-13T23:46:05.655Z,11.70
2023-01-13T23:48:33.346Z,11.43
2023-01-13T23:51:02.342Z,11.40
2023-01-13T23:53:33.544Z,11.80
2023-01-13T23:56:02.217Z,10.13
2023-01-13T23:58:30.067Z,11.15
